sensor_id;sensor_type;location;lat;lon;timestamp;pressure;altitude;pressure_sealevel;temperature;humidity
19594;BME280;9944;48.240;16.478;2023-08-08T00:03:53;99844.00;;;13.52;66.52
19594;BME280;9944;48.240;16.478;2023-08-08T00:07:57;99844.97;;;13.48;66.56
19594;BME280;9944;48.240;16.478;2023-08-08T00:12:01;99845.84;;;13.47;66.75
19594;BME280;9944;48.240;16.478;2023-08-08T00:16:05;99853.81;;;13.47;66.77
19594;BME280;9944;48.240;16.478;2023-08-08T00:20:09;99851.16;;;13.47;66.46
19594;BME280;9944;48.240;16.478;2023-08-08T00:24:13;99844.09;;;13.47;66.49
19594;BME280;9944;48.240;16.478;2023-08-08T00:28:17;99844.13;;;13.46;66.62
19594;BME280;9944;48.240;16.478;2023-08-08T00:32:21;99847.66;;;13.44;66.56
19594;BME280;9944;48.240;16.478;2023-08-08T00:36:24;99841.47;;;13.44;66.62
19594;BME280;9944;48.240;16.478;2023-08-08T00:40:27;99844.16;;;13.42;66.60
19594;BME280;9944;48.240;16.478;2023-08-08T00:44:32;99847.66;;;13.43;66.45
19594;BME280;9944;48.240;16.478;2023-08-08T00:48:35;99857.38;;;13.44;66.34
19594;BME280;9944;48.240;16.478;2023-08-08T00:52:38;99855.59;;;13.44;66.40
19594;BME280;9944;48.240;16.478;2023-08-08T00:56:43;99862.72;;;13.42;66.12
19594;BME280;9944;48.240;16.478;2023-08-08T01:00:48;99862.69;;;13.44;66.38
19594;BME280;9944;48.240;16.478;2023-08-08T01:04:51;99855.59;;;13.44;66.23
19594;BME280;9944;48.240;16.478;2023-08-08T01:08:59;99854.75;;;13.42;66.04
19594;BME280;9944;48.240;16.478;2023-08-08T01:13:08;99858.28;;;13.43;66.03
19594;BME280;9944;48.240;16.478;2023-08-08T01:17:15;99857.38;;;13.46;66.22
19594;BME280;9944;48.240;16.478;2023-08-08T01:21:19;99856.44;;;13.48;66.00
19594;BME280;9944;48.240;16.478;2023-08-08T01:25:23;99865.31;;;13.46;65.90
19594;BME280;9944;48.240;16.478;2023-08-08T01:29:27;99853.88;;;13.42;65.97
19594;BME280;9944;48.240;16.478;2023-08-08T01:33:30;99853.88;;;13.42;66.31
19594;BME280;9944;48.240;16.478;2023-08-08T01:37:36;99855.63;;;13.41;66.27
19594;BME280;9944;48.240;16.478;2023-08-08T01:41:44;99853.00;;;13.41;66.04
19594;BME280;9944;48.240;16.478;2023-08-08T01:45:50;99848.66;;;13.37;66.14
19594;BME280;9944;48.240;16.478;2023-08-08T01:49:54;99855.72;;;13.37;65.98
19594;BME280;9944;48.240;16.478;2023-08-08T01:53:58;99861.00;;;13.38;66.46
19594;BME280;9944;48.240;16.478;2023-08-08T01:58:03;99850.44;;;13.35;66.53
19594;BME280;9944;48.240;16.478;2023-08-08T02:02:07;99853.13;;;13.32;66.39
19594;BME280;9944;48.240;16.478;2023-08-08T02:06:10;99854.06;;;13.30;66.38
19594;BME280;9944;48.240;16.478;2023-08-08T02:10:14;99870.00;;;13.28;66.82
19594;BME280;9944;48.240;16.478;2023-08-08T02:14:19;99863.84;;;13.26;66.58
19594;BME280;9944;48.240;16.478;2023-08-08T02:18:22;99876.22;;;13.24;67.07
19594;BME280;9944;48.240;16.478;2023-08-08T02:22:25;99876.25;;;13.22;66.91
19594;BME280;9944;48.240;16.478;2023-08-08T02:26:30;99877.97;;;13.25;67.04
19594;BME280;9944;48.240;16.478;2023-08-08T02:30:35;99880.66;;;13.23;67.21
19594;BME280;9944;48.240;16.478;2023-08-08T02:34:39;99870.03;;;13.25;67.54
19594;BME280;9944;48.240;16.478;2023-08-08T02:38:42;99867.41;;;13.22;67.67
19594;BME280;9944;48.240;16.478;2023-08-08T02:42:46;99875.38;;;13.20;67.52
19594;BME280;9944;48.240;16.478;2023-08-08T02:46:50;99878.97;;;13.16;67.79
19594;BME280;9944;48.240;16.478;2023-08-08T02:50:54;99889.66;;;13.10;67.93
19594;BME280;9944;48.240;16.478;2023-08-08T02:55:00;99885.28;;;13.07;67.68
19594;BME280;9944;48.240;16.478;2023-08-08T02:59:05;99887.94;;;13.06;68.14
19594;BME280;9944;48.240;16.478;2023-08-08T03:03:10;99896.78;;;13.05;67.93
19594;BME280;9944;48.240;16.478;2023-08-08T03:07:14;99887.97;;;13.03;68.11
19594;BME280;9944;48.240;16.478;2023-08-08T03:11:18;99882.69;;;13.01;68.35
19594;BME280;9944;48.240;16.478;2023-08-08T03:15:23;99892.41;;;13.02;68.19
19594;BME280;9944;48.240;16.478;2023-08-08T03:19:27;99901.25;;;13.01;68.27
19594;BME280;9944;48.240;16.478;2023-08-08T03:23:33;99893.34;;;12.98;68.78
19594;BME280;9944;48.240;16.478;2023-08-08T03:27:36;99891.59;;;12.97;68.69
19594;BME280;9944;48.240;16.478;2023-08-08T03:31:42;99894.22;;;12.97;68.53
19594;BME280;9944;48.240;16.478;2023-08-08T03:35:47;99887.16;;;12.96;68.83
19594;BME280;9944;48.240;16.478;2023-08-08T03:39:52;99886.31;;;12.96;68.88
19594;BME280;9944;48.240;16.478;2023-08-08T03:43:55;99875.72;;;12.93;68.75
19594;BME280;9944;48.240;16.478;2023-08-08T03:48:00;99883.66;;;12.94;68.84
19594;BME280;9944;48.240;16.478;2023-08-08T03:52:06;99887.22;;;12.95;69.13
19594;BME280;9944;48.240;16.478;2023-08-08T03:56:10;99882.78;;;12.95;68.82
19594;BME280;9944;48.240;16.478;2023-08-08T04:00:13;99900.41;;;12.98;69.15
19594;BME280;9944;48.240;16.478;2023-08-08T04:04:17;99904.81;;;13.00;69.09
19594;BME280;9944;48.240;16.478;2023-08-08T04:08:21;99893.25;;;13.04;69.40
19594;BME280;9944;48.240;16.478;2023-08-08T04:12:25;99902.00;;;13.11;69.25
19594;BME280;9944;48.240;16.478;2023-08-08T04:16:28;99902.84;;;13.15;69.21
19594;BME280;9944;48.240;16.478;2023-08-08T04:20:32;99899.31;;;13.16;69.24
19594;BME280;9944;48.240;16.478;2023-08-08T04:24:36;99909.84;;;13.19;69.51
19594;BME280;9944;48.240;16.478;2023-08-08T04:28:40;99906.34;;;13.17;69.39
19594;BME280;9944;48.240;16.478;2023-08-08T04:32:44;99907.28;;;13.16;68.97
19594;BME280;9944;48.240;16.478;2023-08-08T04:36:48;99918.72;;;13.18;69.07
19594;BME280;9944;48.240;16.478;2023-08-08T04:40:53;99914.28;;;13.20;68.74
19594;BME280;9944;48.240;16.478;2023-08-08T04:44:56;99908.09;;;13.21;68.73
19594;BME280;9944;48.240;16.478;2023-08-08T04:48:59;99922.22;;;13.21;68.52
19594;BME280;9944;48.240;16.478;2023-08-08T04:53:03;99916.88;;;13.24;68.64
19594;BME280;9944;48.240;16.478;2023-08-08T04:57:08;99929.16;;;13.32;68.53
19594;BME280;9944;48.240;16.478;2023-08-08T05:01:11;99929.97;;;13.38;68.68
19594;BME280;9944;48.240;16.478;2023-08-08T05:05:17;99932.50;;;13.44;68.43
19594;BME280;9944;48.240;16.478;2023-08-08T05:09:20;99935.97;;;13.50;68.93
19594;BME280;9944;48.240;16.478;2023-08-08T05:13:29;99934.97;;;13.58;69.08
19594;BME280;9944;48.240;16.478;2023-08-08T05:17:33;99930.47;;;13.65;69.26
19594;BME280;9944;48.240;16.478;2023-08-08T05:21:36;99929.50;;;13.69;69.18
19594;BME280;9944;48.240;16.478;2023-08-08T05:25:40;99931.25;;;13.75;68.73
19594;BME280;9944;48.240;16.478;2023-08-08T05:29:44;99945.25;;;13.83;67.92
19594;BME280;9944;48.240;16.478;2023-08-08T05:33:48;99937.19;;;13.91;67.76
19594;BME280;9944;48.240;16.478;2023-08-08T05:37:51;99930.84;;;14.03;67.92
19594;BME280;9944;48.240;16.478;2023-08-08T05:41:54;99921.81;;;14.14;67.83
19594;BME280;9944;48.240;16.478;2023-08-08T05:45:59;99919.81;;;14.27;67.16
19594;BME280;9944;48.240;16.478;2023-08-08T05:50:02;99927.53;;;14.41;66.65
19594;BME280;9944;48.240;16.478;2023-08-08T05:54:06;99932.56;;;14.58;66.40
19594;BME280;9944;48.240;16.478;2023-08-08T05:58:09;99939.34;;;14.73;65.77
19594;BME280;9944;48.240;16.478;2023-08-08T06:02:14;99938.28;;;14.85;65.50
19594;BME280;9944;48.240;16.478;2023-08-08T06:06:18;99938.03;;;14.97;64.98
19594;BME280;9944;48.240;16.478;2023-08-08T06:10:22;99940.47;;;15.09;64.36
19594;BME280;9944;48.240;16.478;2023-08-08T06:14:25;99942.06;;;15.18;63.85
19594;BME280;9944;48.240;16.478;2023-08-08T06:18:30;99950.75;;;15.26;63.52
19594;BME280;9944;48.240;16.478;2023-08-08T06:22:33;99946.97;;;15.38;63.09
19594;BME280;9944;48.240;16.478;2023-08-08T06:26:36;99948.50;;;15.50;62.94
19594;BME280;9944;48.240;16.478;2023-08-08T06:30:40;99939.25;;;15.66;62.10
19594;BME280;9944;48.240;16.478;2023-08-08T06:34:44;99929.97;;;15.86;62.35
19594;BME280;9944;48.240;16.478;2023-08-08T06:38:48;99927.66;;;16.10;61.85
19594;BME280;9944;48.240;16.478;2023-08-08T06:42:51;99937.84;;;16.28;61.38
19594;BME280;9944;48.240;16.478;2023-08-08T06:46:54;99939.09;;;16.49;61.03
19594;BME280;9944;48.240;16.478;2023-08-08T06:50:59;99933.59;;;16.55;60.39
19594;BME280;9944;48.240;16.478;2023-08-08T06:55:03;99949.47;;;16.60;60.10
19594;BME280;9944;48.240;16.478;2023-08-08T06:59:06;99945.00;;;16.60;59.50
19594;BME280;9944;48.240;16.478;2023-08-08T07:03:10;99938.81;;;16.60;59.16
19594;BME280;9944;48.240;16.478;2023-08-08T07:07:15;99943.16;;;16.62;58.69
19594;BME280;9944;48.240;16.478;2023-08-08T07:11:18;99950.34;;;16.60;58.82
19594;BME280;9944;48.240;16.478;2023-08-08T07:15:22;99954.72;;;16.63;58.63
19594;BME280;9944;48.240;16.478;2023-08-08T07:19:26;99937.75;;;16.66;58.34
19594;BME280;9944;48.240;16.478;2023-08-08T07:23:30;99941.09;;;16.74;58.06
19594;BME280;9944;48.240;16.478;2023-08-08T07:27:34;99939.94;;;16.86;57.89
19594;BME280;9944;48.240;16.478;2023-08-08T07:31:37;99941.41;;;16.97;57.80
19594;BME280;9944;48.240;16.478;2023-08-08T07:35:41;99937.25;;;17.18;57.73
19594;BME280;9944;48.240;16.478;2023-08-08T07:39:45;99940.13;;;17.41;57.24
19594;BME280;9944;48.240;16.478;2023-08-08T07:43:49;99945.81;;;17.60;56.91
19594;BME280;9944;48.240;16.478;2023-08-08T07:47:52;99925.72;;;17.78;56.65
19594;BME280;9944;48.240;16.478;2023-08-08T07:51:55;99933.38;;;17.88;55.33
19594;BME280;9944;48.240;16.478;2023-08-08T07:56:00;99940.50;;;17.89;54.92
19594;BME280;9944;48.240;16.478;2023-08-08T08:00:05;99935.50;;;17.77;54.17
19594;BME280;9944;48.240;16.478;2023-08-08T08:04:12;99919.84;;;17.65;54.51
19594;BME280;9944;48.240;16.478;2023-08-08T08:08:16;99924.31;;;17.64;55.02
19594;BME280;9944;48.240;16.478;2023-08-08T08:12:20;99931.16;;;17.73;54.55
19594;BME280;9944;48.240;16.478;2023-08-08T08:16:24;99933.78;;;17.76;54.33
19594;BME280;9944;48.240;16.478;2023-08-08T08:20:27;99922.38;;;17.69;53.47
19594;BME280;9944;48.240;16.478;2023-08-08T08:24:31;99926.81;;;17.70;54.76
19594;BME280;9944;48.240;16.478;2023-08-08T08:28:35;99925.69;;;17.79;54.86
19594;BME280;9944;48.240;16.478;2023-08-08T08:32:39;99929.22;;;17.80;54.33
19594;BME280;9944;48.240;16.478;2023-08-08T08:36:43;99925.75;;;17.76;54.61
19594;BME280;9944;48.240;16.478;2023-08-08T08:40:47;99933.78;;;17.76;54.84
19594;BME280;9944;48.240;16.478;2023-08-08T08:44:54;99934.75;;;17.72;54.84
19594;BME280;9944;48.240;16.478;2023-08-08T08:48:59;99927.66;;;17.71;55.22
19594;BME280;9944;48.240;16.478;2023-08-08T08:53:03;99920.72;;;17.65;54.70
19594;BME280;9944;48.240;16.478;2023-08-08T08:57:07;99921.78;;;17.60;54.38
19594;BME280;9944;48.240;16.478;2023-08-08T09:01:13;99926.22;;;17.61;55.16
19594;BME280;9944;48.240;16.478;2023-08-08T09:05:18;99917.91;;;17.70;53.84
19594;BME280;9944;48.240;16.478;2023-08-08T09:09:24;99924.81;;;17.77;54.65
19594;BME280;9944;48.240;16.478;2023-08-08T09:13:35;99920.84;;;17.90;54.26
19594;BME280;9944;48.240;16.478;2023-08-08T09:17:42;99912.50;;;18.01;53.42
19594;BME280;9944;48.240;16.478;2023-08-08T09:21:51;99903.09;;;18.16;53.77
19594;BME280;9944;48.240;16.478;2023-08-08T09:25:55;99899.59;;;18.41;54.02
19594;BME280;9944;48.240;16.478;2023-08-08T09:29:58;99897.09;;;18.61;53.70
19594;BME280;9944;48.240;16.478;2023-08-08T09:34:05;99888.22;;;18.86;52.43
19594;BME280;9944;48.240;16.478;2023-08-08T09:38:09;99886.84;;;18.99;52.65
19594;BME280;9944;48.240;16.478;2023-08-08T09:42:13;99882.66;;;19.16;52.15
19594;BME280;9944;48.240;16.478;2023-08-08T09:46:18;99887.53;;;19.28;51.78
19594;BME280;9944;48.240;16.478;2023-08-08T09:50:24;99881.03;;;19.35;50.21
19594;BME280;9944;48.240;16.478;2023-08-08T09:54:28;99887.19;;;19.37;50.68
19594;BME280;9944;48.240;16.478;2023-08-08T09:58:32;99876.50;;;19.37;50.17
19594;BME280;9944;48.240;16.478;2023-08-08T10:02:36;99869.75;;;19.51;50.33
19594;BME280;9944;48.240;16.478;2023-08-08T10:06:40;99869.50;;;19.57;49.76
19594;BME280;9944;48.240;16.478;2023-08-08T10:10:46;99871.44;;;19.53;48.98
19594;BME280;9944;48.240;16.478;2023-08-08T10:14:51;99872.63;;;19.46;49.04
19594;BME280;9944;48.240;16.478;2023-08-08T10:18:55;99861.94;;;19.44;49.67
19594;BME280;9944;48.240;16.478;2023-08-08T10:23:02;99858.00;;;19.55;49.18
19594;BME280;9944;48.240;16.478;2023-08-08T10:27:05;99851.97;;;19.72;49.78
19594;BME280;9944;48.240;16.478;2023-08-08T10:31:17;99858.25;;;19.93;49.64
19594;BME280;9944;48.240;16.478;2023-08-08T10:35:23;99852.66;;;19.97;48.62
19594;BME280;9944;48.240;16.478;2023-08-08T10:39:29;99848.88;;;20.03;48.16
19594;BME280;9944;48.240;16.478;2023-08-08T10:43:34;99836.00;;;20.11;47.87
19594;BME280;9944;48.240;16.478;2023-08-08T10:47:37;99828.63;;;20.16;47.56
19594;BME280;9944;48.240;16.478;2023-08-08T10:51:42;99817.59;;;20.04;47.94
19594;BME280;9944;48.240;16.478;2023-08-08T10:55:56;99821.34;;;19.99;47.28
19594;BME280;9944;48.240;16.478;2023-08-08T11:00:18;99805.59;;;20.12;47.44
19594;BME280;9944;48.240;16.478;2023-08-08T11:04:23;99822.00;;;20.25;47.61
19594;BME280;9944;48.240;16.478;2023-08-08T11:08:29;99811.94;;;20.32;46.53
19594;BME280;9944;48.240;16.478;2023-08-08T11:12:34;99804.28;;;20.43;47.40
19594;BME280;9944;48.240;16.478;2023-08-08T11:16:37;99806.97;;;20.64;45.93
19594;BME280;9944;48.240;16.478;2023-08-08T11:20:40;99790.28;;;20.76;45.37
19594;BME280;9944;48.240;16.478;2023-08-08T11:24:44;99787.84;;;20.90;44.99
19594;BME280;9944;48.240;16.478;2023-08-08T11:28:52;99774.22;;;20.95;43.79
19594;BME280;9944;48.240;16.478;2023-08-08T11:32:56;99774.63;;;21.05;44.73
19594;BME280;9944;48.240;16.478;2023-08-08T11:37:02;99766.97;;;21.16;43.92
19594;BME280;9944;48.240;16.478;2023-08-08T11:41:06;99758.41;;;21.27;44.01
19594;BME280;9944;48.240;16.478;2023-08-08T11:45:11;99769.78;;;21.32;43.59
19594;BME280;9944;48.240;16.478;2023-08-08T11:49:16;99749.94;;;21.35;42.86
19594;BME280;9944;48.240;16.478;2023-08-08T11:53:19;99747.63;;;21.46;42.82
19594;BME280;9944;48.240;16.478;2023-08-08T11:57:23;99750.94;;;21.51;43.03
19594;BME280;9944;48.240;16.478;2023-08-08T12:01:30;99748.44;;;21.65;42.50
19594;BME280;9944;48.240;16.478;2023-08-08T12:05:36;99743.69;;;21.71;41.94
19594;BME280;9944;48.240;16.478;2023-08-08T12:09:40;99740.94;;;21.72;41.35
19594;BME280;9944;48.240;16.478;2023-08-08T12:13:44;99733.66;;;21.74;41.96
19594;BME280;9944;48.240;16.478;2023-08-08T12:17:49;99732.56;;;21.78;41.88
19594;BME280;9944;48.240;16.478;2023-08-08T12:21:53;99731.25;;;21.87;42.18
19594;BME280;9944;48.240;16.478;2023-08-08T12:25:57;99734.25;;;21.98;41.57
19594;BME280;9944;48.240;16.478;2023-08-08T12:30:01;99736.44;;;22.08;41.06
19594;BME280;9944;48.240;16.478;2023-08-08T12:34:05;99744.50;;;22.08;40.37
19594;BME280;9944;48.240;16.478;2023-08-08T12:38:09;99737.41;;;22.06;40.28
19594;BME280;9944;48.240;16.478;2023-08-08T12:42:12;99719.38;;;22.09;39.83
19594;BME280;9944;48.240;16.478;2023-08-08T12:46:16;99716.59;;;22.10;40.54
19594;BME280;9944;48.240;16.478;2023-08-08T12:50:21;99710.03;;;22.16;40.61
19594;BME280;9944;48.240;16.478;2023-08-08T12:54:25;99718.56;;;22.24;39.48
19594;BME280;9944;48.240;16.478;2023-08-08T12:58:28;99711.13;;;22.29;40.75
19594;BME280;9944;48.240;16.478;2023-08-08T13:02:33;99711.47;;;22.39;38.88
19594;BME280;9944;48.240;16.478;2023-08-08T13:06:38;99715.06;;;22.39;39.87
19594;BME280;9944;48.240;16.478;2023-08-08T13:10:42;99711.31;;;22.42;39.69
19594;BME280;9944;48.240;16.478;2023-08-08T13:14:45;99714.78;;;22.44;39.08
19594;BME280;9944;48.240;16.478;2023-08-08T13:18:48;99713.22;;;22.40;38.41
19594;BME280;9944;48.240;16.478;2023-08-08T13:22:53;99705.38;;;22.35;38.83
19594;BME280;9944;48.240;16.478;2023-08-08T13:26:57;99703.50;;;22.37;38.57
19594;BME280;9944;48.240;16.478;2023-08-08T13:31:00;99702.69;;;22.35;38.39
19594;BME280;9944;48.240;16.478;2023-08-08T13:35:04;99697.66;;;22.29;39.31
19594;BME280;9944;48.240;16.478;2023-08-08T13:39:09;99694.00;;;22.30;38.53
19594;BME280;9944;48.240;16.478;2023-08-08T13:43:13;99677.25;;;22.25;38.17
19594;BME280;9944;48.240;16.478;2023-08-08T13:47:16;99687.31;;;22.21;38.63
19594;BME280;9944;48.240;16.478;2023-08-08T13:51:20;99681.22;;;22.18;38.24
19594;BME280;9944;48.240;16.478;2023-08-08T13:55:24;99675.84;;;22.18;39.08
19594;BME280;9944;48.240;16.478;2023-08-08T13:59:29;99668.25;;;22.26;38.88
19594;BME280;9944;48.240;16.478;2023-08-08T14:03:32;99669.47;;;22.36;38.92
19594;BME280;9944;48.240;16.478;2023-08-08T14:07:36;99669.31;;;22.39;39.42
19594;BME280;9944;48.240;16.478;2023-08-08T14:11:40;99665.50;;;22.43;39.23
19594;BME280;9944;48.240;16.478;2023-08-08T14:15:44;99666.56;;;22.41;38.34
19594;BME280;9944;48.240;16.478;2023-08-08T14:19:48;99664.81;;;22.40;38.92
19594;BME280;9944;48.240;16.478;2023-08-08T14:23:51;99670.34;;;22.37;38.02
19594;BME280;9944;48.240;16.478;2023-08-08T14:27:56;99664.41;;;22.30;38.29
19594;BME280;9944;48.240;16.478;2023-08-08T14:32:00;99659.84;;;22.32;38.65
19594;BME280;9944;48.240;16.478;2023-08-08T14:36:04;99650.97;;;22.30;38.12
19594;BME280;9944;48.240;16.478;2023-08-08T14:40:09;99651.25;;;22.25;37.77
19594;BME280;9944;48.240;16.478;2023-08-08T14:44:13;99646.88;;;22.23;38.18
19594;BME280;9944;48.240;16.478;2023-08-08T14:48:17;99648.28;;;22.30;38.02
19594;BME280;9944;48.240;16.478;2023-08-08T14:52:20;99653.19;;;22.39;37.58
19594;BME280;9944;48.240;16.478;2023-08-08T14:56:25;99657.25;;;22.47;36.89
19594;BME280;9944;48.240;16.478;2023-08-08T15:00:30;99668.63;;;22.52;37.36
19594;BME280;9944;48.240;16.478;2023-08-08T15:04:34;99664.13;;;22.52;36.96
19594;BME280;9944;48.240;16.478;2023-08-08T15:08:37;99673.53;;;22.61;37.98
19594;BME280;9944;48.240;16.478;2023-08-08T15:12:40;99668.75;;;22.66;37.04
19594;BME280;9944;48.240;16.478;2023-08-08T15:16:50;99670.91;;;22.59;36.73
19594;BME280;9944;48.240;16.478;2023-08-08T15:20:54;99667.78;;;22.51;36.89
19594;BME280;9944;48.240;16.478;2023-08-08T15:24:57;99661.78;;;22.46;38.23
19594;BME280;9944;48.240;16.478;2023-08-08T15:29:00;99667.50;;;22.40;38.64
19594;BME280;9944;48.240;16.478;2023-08-08T15:33:05;99664.25;;;22.33;39.44
19594;BME280;9944;48.240;16.478;2023-08-08T15:37:09;99663.91;;;22.23;39.65
19594;BME280;9944;48.240;16.478;2023-08-08T15:41:14;99671.44;;;22.17;39.68
19594;BME280;9944;48.240;16.478;2023-08-08T15:45:17;99670.91;;;22.10;40.15
19594;BME280;9944;48.240;16.478;2023-08-08T15:49:22;99669.31;;;22.06;40.29
19594;BME280;9944;48.240;16.478;2023-08-08T15:53:26;99662.44;;;22.00;40.38
19594;BME280;9944;48.240;16.478;2023-08-08T15:57:29;99665.13;;;22.00;40.91
19594;BME280;9944;48.240;16.478;2023-08-08T16:01:33;99660.72;;;21.99;41.28
19594;BME280;9944;48.240;16.478;2023-08-08T16:05:39;99661.25;;;22.06;41.36
19594;BME280;9944;48.240;16.478;2023-08-08T16:09:43;99668.28;;;22.09;40.88
19594;BME280;9944;48.240;16.478;2023-08-08T16:13:46;99663.84;;;22.08;40.98
19594;BME280;9944;48.240;16.478;2023-08-08T16:17:50;99661.25;;;22.06;41.02
19594;BME280;9944;48.240;16.478;2023-08-08T16:21:55;99656.91;;;22.03;41.00
19594;BME280;9944;48.240;16.478;2023-08-08T16:25:58;99656.06;;;22.03;40.83
19594;BME280;9944;48.240;16.478;2023-08-08T16:30:02;99659.53;;;22.05;40.57
19594;BME280;9944;48.240;16.478;2023-08-08T16:34:06;99656.91;;;22.03;40.51
19594;BME280;9944;48.240;16.478;2023-08-08T16:38:11;99649.78;;;22.02;40.50
19594;BME280;9944;48.240;16.478;2023-08-08T16:42:16;99652.59;;;22.01;41.29
19594;BME280;9944;48.240;16.478;2023-08-08T16:46:19;99650.13;;;21.96;40.88
19594;BME280;9944;48.240;16.478;2023-08-08T16:50:23;99654.09;;;21.89;40.64
19594;BME280;9944;48.240;16.478;2023-08-08T16:54:27;99660.78;;;21.80;41.02
19594;BME280;9944;48.240;16.478;2023-08-08T16:58:31;99643.16;;;21.75;41.56
19594;BME280;9944;48.240;16.478;2023-08-08T17:02:34;99650.69;;;21.68;41.46
19594;BME280;9944;48.240;16.478;2023-08-08T17:06:38;99647.38;;;21.63;41.94
19594;BME280;9944;48.240;16.478;2023-08-08T17:10:42;99654.63;;;21.61;42.23
19594;BME280;9944;48.240;16.478;2023-08-08T17:14:46;99650.28;;;21.58;42.67
19594;BME280;9944;48.240;16.478;2023-08-08T17:18:49;99651.31;;;21.56;42.89
19594;BME280;9944;48.240;16.478;2023-08-08T17:22:54;99652.66;;;21.47;43.59
19594;BME280;9944;48.240;16.478;2023-08-08T17:27:00;99652.97;;;21.41;43.61
19594;BME280;9944;48.240;16.478;2023-08-08T17:31:03;99652.25;;;21.37;43.75
19594;BME280;9944;48.240;16.478;2023-08-08T17:35:07;99652.56;;;21.31;43.65
19594;BME280;9944;48.240;16.478;2023-08-08T17:39:11;99652.97;;;21.23;43.68
19594;BME280;9944;48.240;16.478;2023-08-08T17:43:15;99657.69;;;21.18;44.00
19594;BME280;9944;48.240;16.478;2023-08-08T17:47:19;99656.13;;;21.14;43.90
19594;BME280;9944;48.240;16.478;2023-08-08T17:51:22;99671.66;;;21.07;43.92
19594;BME280;9944;48.240;16.478;2023-08-08T17:55:26;99664.88;;;20.99;44.10
19594;BME280;9944;48.240;16.478;2023-08-08T17:59:30;99665.97;;;20.94;44.91
19594;BME280;9944;48.240;16.478;2023-08-08T18:03:34;99670.53;;;20.92;45.66
19594;BME280;9944;48.240;16.478;2023-08-08T18:07:37;99669.75;;;20.90;45.76
19594;BME280;9944;48.240;16.478;2023-08-08T18:11:40;99669.97;;;20.86;46.06
19594;BME280;9944;48.240;16.478;2023-08-08T18:15:45;99669.31;;;20.81;46.84
19594;BME280;9944;48.240;16.478;2023-08-08T18:19:51;99667.81;;;20.75;46.49
19594;BME280;9944;48.240;16.478;2023-08-08T18:23:56;99675.34;;;20.67;46.57
19594;BME280;9944;48.240;16.478;2023-08-08T18:28:00;99682.81;;;20.60;46.74
19594;BME280;9944;48.240;16.478;2023-08-08T18:32:05;99690.31;;;20.53;46.74
19594;BME280;9944;48.240;16.478;2023-08-08T18:36:09;99688.81;;;20.46;46.87
19594;BME280;9944;48.240;16.478;2023-08-08T18:40:13;99681.00;;;20.42;47.01
19594;BME280;9944;48.240;16.478;2023-08-08T18:44:24;99694.69;;;20.35;47.83
19594;BME280;9944;48.240;16.478;2023-08-08T18:48:32;99699.44;;;20.29;47.81
19594;BME280;9944;48.240;16.478;2023-08-08T18:52:35;99699.78;;;20.21;48.33
19594;BME280;9944;48.240;16.478;2023-08-08T18:56:38;99698.38;;;20.12;48.64
19594;BME280;9944;48.240;16.478;2023-08-08T19:00:41;99697.06;;;20.02;48.69
19594;BME280;9944;48.240;16.478;2023-08-08T19:04:46;99708.03;;;19.96;49.13
19594;BME280;9944;48.240;16.478;2023-08-08T19:08:49;99716.34;;;19.90;49.07
19594;BME280;9944;48.240;16.478;2023-08-08T19:12:53;99714.22;;;19.77;49.76
19594;BME280;9944;48.240;16.478;2023-08-08T19:16:57;99715.72;;;19.62;49.97
19594;BME280;9944;48.240;16.478;2023-08-08T19:21:02;99712.59;;;19.53;50.32
19594;BME280;9944;48.240;16.478;2023-08-08T19:25:06;99711.97;;;19.46;50.97
19594;BME280;9944;48.240;16.478;2023-08-08T19:29:09;99714.00;;;19.39;51.17
19594;BME280;9944;48.240;16.478;2023-08-08T19:33:13;99708.13;;;19.30;51.65
19594;BME280;9944;48.240;16.478;2023-08-08T19:37:18;99718.38;;;19.20;51.80
19594;BME280;9944;48.240;16.478;2023-08-08T19:41:21;99708.16;;;19.08;51.28
19594;BME280;9944;48.240;16.478;2023-08-08T19:45:25;99709.41;;;18.99;51.01
19594;BME280;9944;48.240;16.478;2023-08-08T19:49:28;99717.50;;;18.97;51.24
19594;BME280;9944;48.240;16.478;2023-08-08T19:53:35;99716.66;;;18.95;51.72
19594;BME280;9944;48.240;16.478;2023-08-08T19:57:38;99711.44;;;18.92;52.20
19594;BME280;9944;48.240;16.478;2023-08-08T20:01:41;99715.16;;;18.88;52.37
19594;BME280;9944;48.240;16.478;2023-08-08T20:05:45;99718.91;;;18.84;52.73
19594;BME280;9944;48.240;16.478;2023-08-08T20:09:49;99718.31;;;18.76;52.84
19594;BME280;9944;48.240;16.478;2023-08-08T20:13:52;99724.84;;;18.68;52.81
19594;BME280;9944;48.240;16.478;2023-08-08T20:17:56;99722.41;;;18.62;52.95
19594;BME280;9944;48.240;16.478;2023-08-08T20:22:08;99721.75;;;18.56;53.25
19594;BME280;9944;48.240;16.478;2023-08-08T20:26:12;99738.75;;;18.53;53.28
19594;BME280;9944;48.240;16.478;2023-08-08T20:30:15;99733.66;;;18.47;53.37
19594;BME280;9944;48.240;16.478;2023-08-08T20:34:18;99740.03;;;18.43;53.36
19594;BME280;9944;48.240;16.478;2023-08-08T20:38:21;99744.59;;;18.39;54.02
19594;BME280;9944;48.240;16.478;2023-08-08T20:42:26;99744.84;;;18.33;54.48
19594;BME280;9944;48.240;16.478;2023-08-08T20:46:29;99742.34;;;18.28;54.33
19594;BME280;9944;48.240;16.478;2023-08-08T20:50:32;99731.94;;;18.21;54.67
19594;BME280;9944;48.240;16.478;2023-08-08T20:54:35;99738.41;;;18.13;55.23
19594;BME280;9944;48.240;16.478;2023-08-08T20:58:40;99743.03;;;18.08;55.61
19594;BME280;9944;48.240;16.478;2023-08-08T21:02:43;99744.13;;;18.03;55.81
19594;BME280;9944;48.240;16.478;2023-08-08T21:06:46;99740.81;;;17.96;55.94
19594;BME280;9944;48.240;16.478;2023-08-08T21:10:49;99740.19;;;17.89;56.13
19594;BME280;9944;48.240;16.478;2023-08-08T21:14:54;99735.13;;;17.80;56.43
19594;BME280;9944;48.240;16.478;2023-08-08T21:19:01;99743.44;;;17.71;56.76
19594;BME280;9944;48.240;16.478;2023-08-08T21:23:04;99742.78;;;17.64;57.15
19594;BME280;9944;48.240;16.478;2023-08-08T21:27:07;99732.41;;;17.55;57.26
19594;BME280;9944;48.240;16.478;2023-08-08T21:31:12;99728.13;;;17.49;57.57
19594;BME280;9944;48.240;16.478;2023-08-08T21:35:15;99738.03;;;17.46;57.73